createdAt,value
2016-04-26T00:00:25.107Z,0
2016-04-26T00:01:08.047Z,0
2016-04-26T00:01:52.659Z,0
2016-04-26T00:02:35.614Z,0
2016-04-26T00:03:18.552Z,0
2016-04-26T00:04:01.492Z,0
2016-04-26T00:04:44.448Z,0
2016-04-26T00:05:27.421Z,0
2016-04-26T00:06:10.346Z,0
2016-04-26T00:06:53.285Z,0
2016-04-26T00:07:36.226Z,0
2016-04-26T00:08:19.179Z,0
2016-04-26T00:09:02.134Z,0
2016-04-26T00:09:45.090Z,0
2016-04-26T00:10:27.871Z,0
2016-04-26T00:11:10.828Z,0
2016-04-26T00:11:53.751Z,0
2016-04-26T00:12:36.692Z,0
2016-04-26T00:13:19.614Z,0
2016-04-26T00:14:02.570Z,0
2016-04-26T00:14:45.495Z,0
2016-04-26T00:15:28.464Z,0
2016-04-26T00:16:12.575Z,0
2016-04-26T00:16:55.328Z,0
2016-04-26T00:17:38.268Z,0
2016-04-26T00:18:21.206Z,0
2016-04-26T00:19:04.131Z,0
2016-04-26T00:19:47.070Z,0
2016-04-26T00:20:30.011Z,0
2016-04-26T00:21:12.151Z,0
2016-04-26T00:21:55.122Z,0
2016-04-26T00:22:38.078Z,0
2016-04-26T00:23:21.000Z,0
2016-04-26T00:24:03.941Z,0
2016-04-26T00:24:46.850Z,0
2016-04-26T00:25:29.834Z,0
2016-04-26T00:26:12.774Z,0
2016-04-26T00:26:55.730Z,0
2016-04-26T00:27:38.670Z,0
2016-04-26T00:28:21.608Z,0
2016-04-26T00:29:04.547Z,0
2016-04-26T00:29:47.504Z,0
2016-04-26T00:30:30.444Z,0
2016-04-26T00:31:13.460Z,0
2016-04-26T00:31:57.010Z,0
2016-04-26T00:32:39.824Z,0
2016-04-26T00:33:22.762Z,0
2016-04-26T00:34:05.718Z,0
2016-04-26T00:34:51.813Z,0
2016-04-26T00:35:34.801Z,0
2016-04-26T00:36:17.770Z,0
2016-04-26T00:37:00.726Z,0
2016-04-26T00:37:43.697Z,0
2016-04-26T00:38:26.635Z,0
2016-04-26T00:39:09.590Z,0
2016-04-26T00:39:52.562Z,0
2016-04-26T00:40:35.518Z,0
2016-04-26T00:41:18.487Z,0
2016-04-26T00:42:01.473Z,0
2016-04-26T00:42:44.398Z,0
2016-04-26T00:43:27.367Z,0
2016-04-26T00:44:10.353Z,0
2016-04-26T00:44:53.309Z,0
2016-04-26T00:45:36.328Z,0
2016-04-26T00:46:19.234Z,0
2016-04-26T00:47:01.439Z,0
2016-04-26T00:47:44.412Z,0
2016-04-26T00:48:27.365Z,0
2016-04-26T00:49:10.336Z,0
2016-04-26T00:49:53.275Z,0
2016-04-26T00:50:36.232Z,0
2016-04-26T00:51:19.170Z,0
2016-04-26T00:52:02.141Z,0
2016-04-26T00:52:45.097Z,0
2016-04-26T00:53:28.066Z,0
2016-04-26T00:54:11.006Z,0
2016-04-26T00:54:53.961Z,0
2016-04-26T00:55:36.933Z,0
2016-04-26T00:56:19.886Z,0
2016-04-26T00:57:02.857Z,0
2016-04-26T00:57:45.813Z,0
2016-04-26T00:58:28.782Z,0
2016-04-26T00:59:11.738Z,0
2016-04-26T00:59:54.678Z,0
2016-04-26T01:00:37.633Z,0
2016-04-26T01:01:21.305Z,0
2016-04-26T01:02:04.965Z,0
2016-04-26T01:02:47.935Z,0
2016-04-26T01:03:30.873Z,0
2016-04-26T01:04:13.814Z,0
2016-04-26T01:04:56.770Z,0
2016-04-26T01:05:39.726Z,0
2016-04-26T01:06:22.679Z,0
2016-04-26T01:07:05.650Z,0
2016-04-26T01:07:48.606Z,0
2016-04-26T01:08:31.577Z,0
2016-04-26T01:09:14.530Z,0
2016-04-26T01:09:57.532Z,0
2016-04-26T01:10:39.693Z,0
2016-04-26T01:11:22.661Z,0
2016-04-26T01:12:05.601Z,0
2016-04-26T01:12:48.572Z,0
2016-04-26T01:13:31.525Z,0
2016-04-26T01:14:14.482Z,0
2016-04-26T01:14:57.421Z,0
2016-04-26T01:15:40.378Z,0
2016-04-26T01:16:24.096Z,0
2016-04-26T01:17:08.849Z,0
2016-04-26T01:17:51.820Z,0
2016-04-26T01:18:34.776Z,0
2016-04-26T01:19:17.714Z,0
2016-04-26T01:20:00.670Z,0
2016-04-26T01:20:43.625Z,0
2016-04-26T01:21:26.594Z,0
2016-04-26T01:22:09.564Z,0
2016-04-26T01:22:52.522Z,0
2016-04-26T01:23:35.492Z,0
2016-04-26T01:24:18.445Z,0
2016-04-26T01:25:01.402Z,0
2016-04-26T01:25:44.248Z,0
2016-04-26T01:26:27.201Z,0
2016-04-26T01:27:10.157Z,0
2016-04-26T01:27:53.113Z,0
2016-04-26T01:28:36.069Z,0
2016-04-26T01:29:19.053Z,0
2016-04-26T01:30:01.994Z,0
2016-04-26T01:30:44.933Z,0
2016-04-26T01:31:27.996Z,0
2016-04-26T01:32:11.014Z,0
2016-04-26T01:32:53.954Z,0
2016-04-26T01:33:36.941Z,0
2016-04-26T01:34:19.894Z,0
2016-04-26T01:35:02.866Z,0
2016-04-26T01:35:45.807Z,0
2016-04-26T01:36:28.744Z,0
2016-04-26T01:37:11.730Z,0
2016-04-26T01:37:54.687Z,0
2016-04-26T01:38:37.658Z,0
2016-04-26T01:39:20.611Z,0
2016-04-26T01:40:03.677Z,0
2016-04-26T01:40:46.616Z,0
2016-04-26T01:41:29.585Z,0
2016-04-26T01:42:12.572Z,0
2016-04-26T01:42:55.513Z,0
2016-04-26T01:43:38.484Z,0
2016-04-26T01:44:21.437Z,0
2016-04-26T01:45:04.409Z,0
2016-04-26T01:45:47.333Z,0
2016-04-26T01:46:30.254Z,0
2016-04-26T01:47:13.337Z,0
2016-04-26T01:47:56.354Z,0
2016-04-26T01:48:39.294Z,0
2016-04-26T01:49:22.278Z,0
2016-04-26T01:50:05.234Z,0
2016-04-26T01:50:48.175Z,0
2016-04-26T01:51:31.128Z,0
2016-04-26T01:52:14.067Z,0
2016-04-26T01:52:57.040Z,0
2016-04-26T01:53:39.995Z,0
2016-04-26T01:54:22.964Z,0
2016-04-26T01:55:05.919Z,0
2016-04-26T01:55:48.876Z,0
2016-04-26T01:56:31.829Z,0
2016-04-26T01:57:14.800Z,0
2016-04-26T01:57:57.740Z,0
2016-04-26T01:58:40.697Z,0
2016-04-26T01:59:23.665Z,0
2016-04-26T02:00:06.621Z,0
2016-04-26T02:00:49.577Z,0
2016-04-26T02:01:32.983Z,0
2016-04-26T02:02:17.439Z,0
2016-04-26T02:03:00.269Z,0
2016-04-26T02:03:43.210Z,0
2016-04-26T02:04:26.178Z,0
2016-04-26T02:05:09.135Z,0
2016-04-26T02:05:52.105Z,0
2016-04-26T02:06:35.058Z,0
2016-04-26T02:07:18.031Z,0
2016-04-26T02:08:00.986Z,0
2016-04-26T02:08:43.957Z,0
2016-04-26T02:09:26.895Z,0
2016-04-26T02:10:09.883Z,0
2016-04-26T02:10:52.822Z,0
2016-04-26T02:11:35.807Z,0
2016-04-26T02:12:18.778Z,0
2016-04-26T02:13:01.718Z,0
2016-04-26T02:13:44.705Z,0
2016-04-26T02:14:27.659Z,0
2016-04-26T02:15:10.661Z,0
2016-04-26T02:15:53.632Z,0
2016-04-26T02:16:37.054Z,0
2016-04-26T02:17:20.542Z,0
2016-04-26T02:18:03.201Z,0
2016-04-26T02:18:46.156Z,0
2016-04-26T02:19:29.125Z,0
2016-04-26T02:20:11.925Z,0
2016-04-26T02:20:54.881Z,0
2016-04-26T02:21:37.896Z,0
2016-04-26T02:22:20.867Z,0
2016-04-26T02:23:03.893Z,0
2016-04-26T02:23:46.692Z,0
2016-04-26T02:24:29.661Z,0
2016-04-26T02:25:12.617Z,0
2016-04-26T02:25:55.604Z,0
2016-04-26T02:26:38.619Z,0
2016-04-26T02:27:21.560Z,0
2016-04-26T02:28:04.563Z,0
2016-04-26T02:28:47.502Z,0
2016-04-26T02:29:30.471Z,0
2016-04-26T02:30:13.443Z,0
2016-04-26T02:30:56.429Z,0
2016-04-26T02:31:39.414Z,0
2016-04-26T02:32:22.121Z,0
2016-04-26T02:33:05.732Z,0
2016-04-26T02:33:48.687Z,0
2016-04-26T02:34:31.640Z,0
2016-04-26T02:35:14.612Z,0
2016-04-26T02:35:57.584Z,0
2016-04-26T02:36:40.381Z,0
2016-04-26T02:37:23.337Z,0
2016-04-26T02:38:06.323Z,0
2016-04-26T02:38:49.280Z,0
2016-04-26T02:39:32.249Z,0
2016-04-26T02:40:15.189Z,0
2016-04-26T02:40:58.160Z,0
2016-04-26T02:41:41.100Z,0
2016-04-26T02:42:24.069Z,0
2016-04-26T02:43:07.039Z,0
2016-04-26T02:43:49.981Z,0
2016-04-26T02:44:32.965Z,0
2016-04-26T02:45:15.953Z,0
2016-04-26T02:45:58.908Z,0
2016-04-26T02:46:41.441Z,0
2016-04-26T02:47:24.316Z,0
2016-04-26T02:48:07.273Z,0
2016-04-26T02:48:50.244Z,0
2016-04-26T02:49:33.228Z,0
2016-04-26T02:50:16.183Z,0
2016-04-26T02:50:59.124Z,0
2016-04-26T02:51:41.925Z,0
2016-04-26T02:52:24.878Z,0
2016-04-26T02:53:07.833Z,0
2016-04-26T02:53:50.804Z,0
2016-04-26T02:54:33.757Z,0
2016-04-26T02:55:16.730Z,0
2016-04-26T02:55:59.684Z,0
2016-04-26T02:56:42.656Z,0
2016-04-26T02:57:25.625Z,0
2016-04-26T02:58:08.565Z,0
2016-04-26T02:58:51.521Z,0
2016-04-26T02:59:34.474Z,0
2016-04-26T03:00:17.430Z,0
2016-04-26T03:01:00.386Z,0
2016-04-26T03:01:43.763Z,0
2016-04-26T03:02:26.623Z,0
2016-04-26T03:03:09.578Z,0
2016-04-26T03:03:52.550Z,0
2016-04-26T03:04:35.488Z,0
2016-04-26T03:05:18.474Z,0
2016-04-26T03:06:01.430Z,0
2016-04-26T03:06:44.386Z,0
2016-04-26T03:07:27.339Z,0
2016-04-26T03:08:10.310Z,0
2016-04-26T03:08:53.267Z,0
2016-04-26T03:09:36.251Z,0
2016-04-26T03:10:19.206Z,0
2016-04-26T03:11:02.162Z,0
2016-04-26T03:11:45.118Z,0
2016-04-26T03:12:28.056Z,0
2016-04-26T03:13:11.012Z,0
2016-04-26T03:13:53.998Z,0
2016-04-26T03:14:36.936Z,0
2016-04-26T03:15:19.892Z,0
2016-04-26T03:16:02.847Z,0
2016-04-26T03:16:45.851Z,0
2016-04-26T03:17:28.508Z,0
2016-04-26T03:18:11.432Z,0
2016-04-26T03:18:54.388Z,0
2016-04-26T03:19:37.326Z,0
2016-04-26T03:20:20.297Z,0
2016-04-26T03:21:03.268Z,0
2016-04-26T03:21:46.224Z,0
2016-04-26T03:22:29.178Z,0
2016-04-26T03:23:12.133Z,0
2016-04-26T03:23:55.089Z,0
2016-04-26T03:24:38.058Z,0
2016-04-26T03:25:21.045Z,0
2016-04-26T03:26:04.032Z,0
2016-04-26T03:26:46.987Z,0
2016-04-26T03:27:29.941Z,0
2016-04-26T03:28:12.881Z,0
2016-04-26T03:28:55.853Z,0
2016-04-26T03:29:38.806Z,0
2016-04-26T03:30:21.761Z,0
2016-04-26T03:31:04.748Z,0
2016-04-26T03:31:49.283Z,0
2016-04-26T03:32:32.314Z,0
2016-04-26T03:33:15.285Z,0
2016-04-26T03:33:58.241Z,0
2016-04-26T03:34:41.194Z,0
2016-04-26T03:35:24.150Z,0
2016-04-26T03:36:07.121Z,0
2016-04-26T03:36:50.077Z,0
2016-04-26T03:37:33.077Z,0
2016-04-26T03:38:16.033Z,0
2016-04-26T03:38:59.005Z,0
2016-04-26T03:39:41.960Z,0
2016-04-26T03:40:24.944Z,0
2016-04-26T03:41:07.885Z,0
2016-04-26T03:41:50.857Z,0
2016-04-26T03:42:33.825Z,0
2016-04-26T03:43:16.780Z,0
2016-04-26T03:43:59.752Z,0
2016-04-26T03:44:42.692Z,0
2016-04-26T03:45:25.645Z,0
2016-04-26T03:46:08.618Z,0
2016-04-26T03:46:51.745Z,0
2016-04-26T03:47:34.682Z,0
2016-04-26T03:48:17.668Z,0
2016-04-26T03:49:00.610Z,0
2016-04-26T03:49:43.581Z,0
2016-04-26T03:50:26.549Z,0
2016-04-26T03:51:09.537Z,0
2016-04-26T03:51:52.524Z,0
2016-04-26T03:52:35.477Z,0
2016-04-26T03:53:18.479Z,0
2016-04-26T03:54:01.420Z,0
2016-04-26T03:54:44.391Z,0
2016-04-26T03:55:27.344Z,0
2016-04-26T03:56:10.284Z,0
2016-04-26T03:56:53.240Z,0
2016-04-26T03:57:36.209Z,0
2016-04-26T03:58:19.180Z,0
2016-04-26T03:59:02.137Z,0
2016-04-26T03:59:45.123Z,0
2016-04-26T04:00:28.076Z,0
2016-04-26T04:01:11.032Z,0
2016-04-26T04:01:56.426Z,0
2016-04-26T04:02:39.504Z,0
2016-04-26T04:03:22.319Z,0
2016-04-26T04:04:05.258Z,0
2016-04-26T04:04:48.231Z,0
2016-04-26T04:05:31.200Z,0
2016-04-26T04:06:14.155Z,5
2016-04-26T04:06:57.111Z,5
2016-04-26T04:07:40.080Z,5
2016-04-26T04:08:23.067Z,5
2016-04-26T04:09:06.022Z,5
2016-04-26T04:09:49.004Z,5
2016-04-26T04:10:31.973Z,5
2016-04-26T04:11:14.913Z,5
2016-04-26T04:11:57.884Z,5
2016-04-26T04:12:40.837Z,5
2016-04-26T04:13:23.809Z,5
2016-04-26T04:14:06.765Z,5
2016-04-26T04:14:49.720Z,10
2016-04-26T04:15:32.704Z,10
2016-04-26T04:16:15.660Z,10
2016-04-26T04:17:00.398Z,10
2016-04-26T04:17:43.259Z,10
2016-04-26T04:18:26.275Z,10
2016-04-26T04:19:09.231Z,10
2016-04-26T04:19:52.187Z,10
2016-04-26T04:20:35.156Z,15
2016-04-26T04:21:18.142Z,15
2016-04-26T04:22:01.083Z,15
2016-04-26T04:22:44.070Z,15
2016-04-26T04:23:27.008Z,15
2016-04-26T04:24:09.964Z,15
2016-04-26T04:24:52.950Z,20
2016-04-26T04:25:35.919Z,20
2016-04-26T04:26:18.859Z,20
2016-04-26T04:27:01.831Z,20
2016-04-26T04:27:44.786Z,20
2016-04-26T04:28:27.755Z,20
2016-04-26T04:29:10.570Z,25
2016-04-26T04:29:53.526Z,25
2016-04-26T04:30:36.463Z,25
2016-04-26T04:31:19.451Z,25
2016-04-26T04:32:03.267Z,30
2016-04-26T04:32:45.863Z,30
2016-04-26T04:33:28.660Z,30
2016-04-26T04:34:11.647Z,30
2016-04-26T04:34:54.586Z,35
2016-04-26T04:35:37.571Z,35
2016-04-26T04:36:20.527Z,35
2016-04-26T04:37:03.513Z,35
2016-04-26T04:37:46.469Z,35
2016-04-26T04:38:29.438Z,35
2016-04-26T04:39:12.379Z,35
2016-04-26T04:39:55.475Z,35
2016-04-26T04:40:38.429Z,40
2016-04-26T04:41:21.399Z,40
2016-04-26T04:42:04.387Z,40
2016-04-26T04:42:47.358Z,40
2016-04-26T04:43:30.296Z,40
2016-04-26T04:44:13.251Z,40
2016-04-26T04:44:56.254Z,40
2016-04-26T04:45:39.192Z,45
2016-04-26T04:46:22.163Z,45
2016-04-26T04:47:04.931Z,45
2016-04-26T04:47:47.856Z,45
2016-04-26T04:48:30.668Z,45
2016-04-26T04:49:13.624Z,45
2016-04-26T04:49:56.595Z,45
2016-04-26T04:50:39.548Z,45
2016-04-26T04:51:22.536Z,50
2016-04-26T04:52:05.492Z,50
2016-04-26T04:52:48.447Z,50
2016-04-26T04:53:31.416Z,50
2016-04-26T04:54:14.372Z,55
2016-04-26T04:54:57.344Z,55
2016-04-26T04:55:40.297Z,55
2016-04-26T04:56:23.267Z,60
2016-04-26T04:57:06.239Z,60
2016-04-26T04:57:49.227Z,65
2016-04-26T04:58:32.164Z,70
2016-04-26T04:59:15.136Z,70
2016-04-26T04:59:58.075Z,75
2016-04-26T05:00:41.060Z,75
2016-04-26T05:01:24.016Z,80
2016-04-26T05:02:07.784Z,80
2016-04-26T05:02:51.177Z,80
2016-04-26T05:03:34.146Z,80
2016-04-26T05:04:17.118Z,80
2016-04-26T05:05:00.074Z,80
2016-04-26T05:05:43.042Z,80
2016-04-26T05:06:25.998Z,80
2016-04-26T05:07:08.955Z,80
2016-04-26T05:07:51.909Z,80
2016-04-26T05:08:34.878Z,85
2016-04-26T05:09:17.850Z,85
2016-04-26T05:10:00.822Z,85
2016-04-26T05:10:43.806Z,85
2016-04-26T05:11:26.762Z,85
2016-04-26T05:12:09.733Z,90
2016-04-26T05:12:52.673Z,85
2016-04-26T05:13:35.657Z,80
2016-04-26T05:14:18.598Z,80
2016-04-26T05:15:01.554Z,75
2016-04-26T05:15:44.523Z,75
2016-04-26T05:16:27.478Z,75
2016-04-26T05:17:10.699Z,65
2016-04-26T05:17:55.639Z,60
2016-04-26T05:18:38.592Z,65
2016-04-26T05:19:21.565Z,65
2016-04-26T05:20:04.552Z,60
2016-04-26T05:20:47.539Z,60
2016-04-26T05:21:30.507Z,60
2016-04-26T05:22:13.479Z,65
2016-04-26T05:22:56.278Z,65
2016-04-26T05:23:39.262Z,65
2016-04-26T05:24:22.234Z,65
2016-04-26T05:25:05.190Z,70
2016-04-26T05:25:48.145Z,70
2016-04-26T05:26:31.114Z,70
2016-04-26T05:27:14.086Z,75
2016-04-26T05:27:57.058Z,75
2016-04-26T05:28:40.011Z,75
2016-04-26T05:29:22.967Z,80
2016-04-26T05:30:05.906Z,85
2016-04-26T05:30:48.862Z,85
2016-04-26T05:31:31.784Z,90
2016-04-26T05:32:17.037Z,95
2016-04-26T05:32:59.992Z,100
2016-04-26T05:33:42.805Z,105
2016-04-26T05:34:25.745Z,105
2016-04-26T05:35:08.717Z,105
2016-04-26T05:35:51.657Z,110
2016-04-26T05:36:34.625Z,110
2016-04-26T05:37:17.597Z,110
2016-04-26T05:38:00.584Z,110
2016-04-26T05:38:43.537Z,110
2016-04-26T05:39:26.493Z,115
2016-04-26T05:40:09.480Z,120
2016-04-26T05:40:52.467Z,120
2016-04-26T05:41:35.420Z,120
2016-04-26T05:42:18.407Z,115
2016-04-26T05:43:01.207Z,115
2016-04-26T05:43:44.191Z,105
2016-04-26T05:44:27.179Z,100
2016-04-26T05:45:10.118Z,100
2016-04-26T05:45:53.059Z,100
2016-04-26T05:46:36.043Z,95
2016-04-26T05:47:20.201Z,90
2016-04-26T05:48:04.111Z,90
2016-04-26T05:48:47.082Z,90
2016-04-26T05:49:30.098Z,90
2016-04-26T05:50:12.835Z,90
2016-04-26T05:50:55.713Z,90
2016-04-26T05:51:38.682Z,90
2016-04-26T05:52:21.637Z,90
2016-04-26T05:53:04.625Z,95
2016-04-26T05:53:47.581Z,95
2016-04-26T05:54:30.549Z,95
2016-04-26T05:55:13.520Z,95
2016-04-26T05:55:56.492Z,95
2016-04-26T05:56:39.527Z,95
2016-04-26T05:57:22.796Z,90
2016-04-26T05:58:06.740Z,90
2016-04-26T05:58:50.243Z,90
2016-04-26T05:59:33.681Z,95
2016-04-26T06:00:16.605Z,100
2016-04-26T06:00:59.748Z,105
2016-04-26T06:01:43.961Z,110
2016-04-26T06:02:26.855Z,110
2016-04-26T06:03:10.685Z,120
2016-04-26T06:03:52.875Z,135
2016-04-26T06:04:35.860Z,140
2016-04-26T06:05:18.911Z,160
2016-04-26T06:06:01.928Z,170
2016-04-26T06:06:44.866Z,190
2016-04-26T06:07:27.837Z,210
2016-04-26T06:08:10.824Z,210
2016-04-26T06:08:53.811Z,190
2016-04-26T06:09:36.764Z,165
2016-04-26T06:10:19.751Z,145
2016-04-26T06:11:02.691Z,140
2016-04-26T06:11:45.660Z,140
2016-04-26T06:12:28.600Z,145
2016-04-26T06:13:11.540Z,150
2016-04-26T06:13:54.355Z,145
2016-04-26T06:14:37.324Z,135
2016-04-26T06:15:20.280Z,130
2016-04-26T06:16:03.236Z,135
2016-04-26T06:16:46.205Z,140
2016-04-26T06:17:29.989Z,120
2016-04-26T06:18:13.195Z,95
2016-04-26T06:18:56.198Z,90
2016-04-26T06:19:39.198Z,65
2016-04-26T06:20:22.184Z,55
2016-04-26T06:21:05.140Z,55
2016-04-26T06:21:47.328Z,55
2016-04-26T06:22:30.271Z,50
2016-04-26T06:23:13.243Z,50
2016-04-26T06:23:56.199Z,45
2016-04-26T06:24:39.199Z,45
2016-04-26T06:25:22.185Z,40
2016-04-26T06:26:05.157Z,45
2016-04-26T06:26:48.126Z,50
2016-04-26T06:27:31.081Z,60
2016-04-26T06:28:14.021Z,65
2016-04-26T06:29:01.431Z,60
2016-04-26T06:29:44.399Z,65
2016-04-26T06:30:27.355Z,60
2016-04-26T06:31:10.327Z,55
2016-04-26T06:31:53.876Z,60
2016-04-26T06:32:37.595Z,65
2016-04-26T06:33:20.379Z,65
2016-04-26T06:34:03.350Z,65
2016-04-26T06:34:46.865Z,70
2016-04-26T06:35:29.681Z,85
2016-04-26T06:36:12.637Z,95
2016-04-26T06:36:55.608Z,105
2016-04-26T06:37:36.967Z,115
2016-04-26T06:38:19.939Z,110
2016-04-26T06:39:02.894Z,85
2016-04-26T06:39:45.847Z,80
2016-04-26T06:40:28.836Z,85
2016-04-26T06:41:11.806Z,90
2016-04-26T06:41:54.761Z,110
2016-04-26T06:42:37.746Z,130
2016-04-26T06:43:20.703Z,130
2016-04-26T06:44:03.658Z,120
2016-04-26T06:44:46.611Z,165
2016-04-26T06:45:29.583Z,190
2016-04-26T06:46:12.570Z,225
2016-04-26T06:46:55.541Z,235
2016-04-26T06:47:37.900Z,230
2016-04-26T06:48:22.950Z,235
2016-04-26T06:49:05.952Z,235
2016-04-26T06:49:48.905Z,230
2016-04-26T06:50:31.877Z,195
2016-04-26T06:51:14.849Z,155
2016-04-26T06:51:57.804Z,120
2016-04-26T06:52:40.757Z,90
2016-04-26T06:53:23.760Z,70
2016-04-26T06:54:06.716Z,60
2016-04-26T06:54:49.685Z,70
2016-04-26T06:55:32.657Z,70
2016-04-26T06:56:15.737Z,75
2016-04-26T06:56:58.787Z,75
2016-04-26T06:57:41.756Z,80
2016-04-26T06:58:24.742Z,80
2016-04-26T06:59:07.698Z,75
2016-04-26T06:59:50.670Z,75
2016-04-26T07:00:33.639Z,75
2016-04-26T07:01:16.594Z,60
2016-04-26T07:01:59.581Z,55
2016-04-26T07:02:45.644Z,50
2016-04-26T07:03:30.256Z,50
2016-04-26T07:04:13.196Z,40
2016-04-26T07:04:56.184Z,30
2016-04-26T07:05:39.153Z,20
2016-04-26T07:06:22.124Z,20
2016-04-26T07:07:05.079Z,20
2016-04-26T07:07:48.064Z,25
2016-04-26T07:08:31.020Z,30
2016-04-26T07:09:13.976Z,40
2016-04-26T07:09:56.962Z,45
2016-04-26T07:10:39.931Z,40
2016-04-26T07:11:22.903Z,40
2016-04-26T07:12:05.717Z,45
2016-04-26T07:12:48.702Z,50
2016-04-26T07:13:31.799Z,55
2016-04-26T07:14:14.770Z,60
2016-04-26T07:14:57.805Z,65
2016-04-26T07:15:41.523Z,70
2016-04-26T07:16:24.557Z,80
2016-04-26T07:17:07.513Z,105
2016-04-26T07:17:49.935Z,120
2016-04-26T07:18:33.031Z,170
2016-04-26T07:19:16.019Z,170
2016-04-26T07:19:58.958Z,150
2016-04-26T07:20:41.911Z,145
2016-04-26T07:21:24.883Z,135
2016-04-26T07:22:07.869Z,125
2016-04-26T07:22:50.546Z,125
2016-04-26T07:23:33.565Z,130
2016-04-26T07:24:16.536Z,135
2016-04-26T07:24:59.492Z,125
2016-04-26T07:25:42.492Z,135
2016-04-26T07:26:25.557Z,130
2016-04-26T07:27:08.591Z,120
2016-04-26T07:27:51.548Z,100
2016-04-26T07:28:34.501Z,90
2016-04-26T07:29:17.440Z,80
2016-04-26T07:30:00.412Z,70
2016-04-26T07:30:43.365Z,60
2016-04-26T07:31:26.414Z,50
2016-04-26T07:32:09.386Z,50
2016-04-26T07:32:53.357Z,45
2016-04-26T07:33:39.201Z,45
2016-04-26T07:34:22.188Z,55
2016-04-26T07:35:05.160Z,50
2016-04-26T07:35:48.098Z,50
2016-04-26T07:36:31.052Z,50
2016-04-26T07:37:14.024Z,50
2016-04-26T07:37:56.981Z,60
2016-04-26T07:38:39.950Z,65
2016-04-26T07:39:22.920Z,65
2016-04-26T07:40:05.720Z,65
2016-04-26T07:40:48.673Z,60
2016-04-26T07:41:31.628Z,80
2016-04-26T07:42:14.600Z,100
2016-04-26T07:42:57.541Z,120
2016-04-26T07:43:40.494Z,115
2016-04-26T07:44:23.449Z,110
2016-04-26T07:45:06.405Z,110
2016-04-26T07:45:49.389Z,125
2016-04-26T07:46:32.345Z,110
2016-04-26T07:47:15.349Z,105
2016-04-26T07:47:59.429Z,100
2016-04-26T07:48:44.304Z,95
2016-04-26T07:49:27.260Z,105
2016-04-26T07:50:10.247Z,145
2016-04-26T07:50:53.218Z,125
2016-04-26T07:51:36.171Z,140
2016-04-26T07:52:19.158Z,150
2016-04-26T07:53:02.130Z,135
2016-04-26T07:53:45.083Z,120
2016-04-26T07:54:28.038Z,125
2016-04-26T07:55:11.010Z,125
2016-04-26T07:55:53.981Z,125
2016-04-26T07:56:36.965Z,115
2016-04-26T07:57:19.938Z,125
2016-04-26T07:58:02.894Z,115
2016-04-26T07:58:45.832Z,85
2016-04-26T07:59:28.771Z,70
2016-04-26T08:00:11.743Z,70
2016-04-26T08:00:54.714Z,95
2016-04-26T08:01:37.682Z,90
2016-04-26T08:02:20.622Z,85
2016-04-26T08:03:03.626Z,85
2016-04-26T08:03:46.688Z,80
2016-04-26T08:04:29.644Z,85
2016-04-26T08:05:12.584Z,90
2016-04-26T08:05:55.555Z,85
2016-04-26T08:06:38.508Z,80
2016-04-26T08:07:21.480Z,95
2016-04-26T08:08:04.436Z,90
2016-04-26T08:08:47.389Z,100
2016-04-26T08:09:30.376Z,140
2016-04-26T08:10:13.332Z,175
2016-04-26T08:10:56.288Z,235
2016-04-26T08:11:39.256Z,240
2016-04-26T08:12:22.212Z,235
2016-04-26T08:13:05.419Z,250
2016-04-26T08:13:48.356Z,295
2016-04-26T08:14:31.342Z,370
2016-04-26T08:15:14.299Z,425
2016-04-26T08:15:57.254Z,305
2016-04-26T08:16:40.222Z,200
2016-04-26T08:17:23.179Z,220
2016-04-26T08:18:07.416Z,260
2016-04-26T08:18:50.853Z,280
2016-04-26T08:19:32.935Z,230
2016-04-26T08:20:15.906Z,180
2016-04-26T08:20:58.877Z,165
2016-04-26T08:21:41.830Z,195
2016-04-26T08:22:24.802Z,205
2016-04-26T08:23:07.758Z,185
2016-04-26T08:23:50.555Z,185
2016-04-26T08:24:33.510Z,185
2016-04-26T08:25:16.482Z,185
2016-04-26T08:25:59.437Z,245
2016-04-26T08:26:42.390Z,270
2016-04-26T08:27:25.377Z,275
2016-04-26T08:28:08.349Z,250
2016-04-26T08:28:51.309Z,340
2016-04-26T08:29:34.264Z,230
2016-04-26T08:30:17.239Z,260
2016-04-26T08:31:00.236Z,480
2016-04-26T08:31:43.205Z,370
2016-04-26T08:32:26.219Z,350
2016-04-26T08:33:09.575Z,425
2016-04-26T08:33:52.435Z,460
2016-04-26T08:34:35.480Z,345
2016-04-26T08:35:18.382Z,270
2016-04-26T08:36:01.415Z,630
2016-04-26T08:36:44.383Z,715
2016-04-26T08:37:27.073Z,355
2016-04-26T08:38:10.060Z,730
2016-04-26T08:38:53.013Z,705
2016-04-26T08:39:36.000Z,780
2016-04-26T08:40:18.969Z,280
2016-04-26T08:41:01.931Z,305
2016-04-26T08:41:44.900Z,360
2016-04-26T08:42:27.877Z,335
2016-04-26T08:43:10.868Z,850
2016-04-26T08:43:53.830Z,860
2016-04-26T08:44:38.846Z,380
2016-04-26T08:45:21.854Z,380
2016-04-26T08:46:04.826Z,415
2016-04-26T08:46:47.795Z,390
2016-04-26T08:47:30.737Z,940
2016-04-26T08:48:14.507Z,345
2016-04-26T08:48:58.825Z,430
2016-04-26T08:49:41.794Z,360
2016-04-26T08:50:24.752Z,955
2016-04-26T08:51:07.723Z,405
2016-04-26T08:51:50.661Z,1010
2016-04-26T08:52:38.711Z,1095
2016-04-26T08:53:21.668Z,285
2016-04-26T08:54:04.641Z,255
2016-04-26T08:54:47.609Z,310
2016-04-26T08:55:30.566Z,320
2016-04-26T08:56:13.522Z,1160
2016-04-26T08:56:56.509Z,445
2016-04-26T08:57:41.665Z,1045
2016-04-26T08:58:24.607Z,415
2016-04-26T08:59:07.594Z,1695
2016-04-26T08:59:50.594Z,1835
2016-04-26T09:00:33.549Z,1105
2016-04-26T09:01:16.521Z,940
2016-04-26T09:01:59.476Z,925
2016-04-26T09:02:42.476Z,1130
2016-04-26T09:03:25.168Z,295
2016-04-26T09:04:07.154Z,540
2016-04-26T09:04:50.107Z,1430
2016-04-26T09:05:33.078Z,280
2016-04-26T09:06:16.051Z,235
2016-04-26T09:06:59.037Z,265
2016-04-26T09:07:41.037Z,285
2016-04-26T09:08:24.009Z,340
2016-04-26T09:09:06.964Z,400
2016-04-26T09:09:49.870Z,365
2016-04-26T09:10:32.842Z,415
2016-04-26T09:11:15.798Z,445
2016-04-26T09:11:58.739Z,535
2016-04-26T09:12:41.723Z,500
2016-04-26T09:13:24.694Z,550
2016-04-26T09:14:07.650Z,535
2016-04-26T09:14:50.603Z,475
2016-04-26T09:15:33.558Z,490
2016-04-26T09:16:16.530Z,790
2016-04-26T09:16:59.502Z,660
2016-04-26T09:17:42.455Z,690
2016-04-26T09:18:25.301Z,560
2016-04-26T09:19:09.178Z,495
2016-04-26T09:19:52.100Z,1465
2016-04-26T09:20:35.088Z,515
2016-04-26T09:21:18.059Z,740
2016-04-26T09:22:01.406Z,1035
2016-04-26T09:22:44.375Z,530
2016-04-26T09:23:27.330Z,2275
2016-04-26T09:24:10.316Z,2235
2016-04-26T09:24:53.270Z,2385
2016-04-26T09:25:36.258Z,860
2016-04-26T09:26:19.213Z,2055
2016-04-26T09:27:02.200Z,580
2016-04-26T09:27:45.154Z,2060
2016-04-26T09:28:28.141Z,1325
2016-04-26T09:29:11.112Z,360
2016-04-26T09:29:54.096Z,395
2016-04-26T09:30:37.068Z,455
2016-04-26T09:31:20.023Z,540
2016-04-26T09:32:03.010Z,925
2016-04-26T09:32:45.963Z,2170
2016-04-26T09:33:29.404Z,1080
2016-04-26T09:34:12.110Z,3585
2016-04-26T09:34:55.063Z,2530
2016-04-26T09:35:38.018Z,2525
2016-04-26T09:36:21.007Z,5160
2016-04-26T09:37:03.962Z,1120
2016-04-26T09:37:46.931Z,720
2016-04-26T09:38:29.901Z,415
2016-04-26T09:39:13.686Z,340
2016-04-26T09:39:56.639Z,340
2016-04-26T09:40:39.642Z,360
2016-04-26T09:41:22.598Z,385
2016-04-26T09:42:05.553Z,255
2016-04-26T09:42:48.506Z,185
2016-04-26T09:43:31.478Z,155
2016-04-26T09:44:17.981Z,155
2016-04-26T09:45:00.967Z,175
2016-04-26T09:45:43.936Z,195
2016-04-26T09:46:26.158Z,205
2016-04-26T09:47:09.113Z,210
2016-04-26T09:47:52.863Z,230
2016-04-26T09:48:36.444Z,235
2016-04-26T09:49:22.869Z,215
2016-04-26T09:50:05.825Z,195
2016-04-26T09:50:48.778Z,225
2016-04-26T09:51:31.750Z,245
2016-04-26T09:52:14.689Z,200
2016-04-26T09:52:56.861Z,170
2016-04-26T09:53:39.833Z,175
2016-04-26T09:54:24.820Z,155
2016-04-26T09:55:07.776Z,145
2016-04-26T09:55:50.745Z,160
2016-04-26T09:56:33.684Z,165
2016-04-26T09:57:16.655Z,125
2016-04-26T09:57:59.643Z,90
2016-04-26T09:58:42.674Z,75
2016-04-26T09:59:25.630Z,70
2016-04-26T10:00:08.602Z,75
2016-04-26T10:00:50.555Z,75
2016-04-26T10:01:33.526Z,80
2016-04-26T10:02:16.482Z,75
2016-04-26T10:03:01.235Z,75
2016-04-26T10:03:46.797Z,80
2016-04-26T10:04:30.018Z,75
2016-04-26T10:05:12.990Z,70
2016-04-26T10:05:55.959Z,65
2016-04-26T10:06:38.915Z,65
2016-04-26T10:07:21.902Z,80
2016-04-26T10:08:04.857Z,90
2016-04-26T10:08:47.795Z,100
2016-04-26T10:09:30.782Z,105
2016-04-26T10:10:13.722Z,105
2016-04-26T10:10:56.784Z,100
2016-04-26T10:11:39.741Z,95
2016-04-26T10:12:22.712Z,90
2016-04-26T10:13:05.684Z,90
2016-04-26T10:13:48.637Z,90
2016-04-26T10:14:31.592Z,105
2016-04-26T10:15:14.548Z,115
2016-04-26T10:15:57.501Z,120